Time;durP1;ratioP1;P1;durP2;ratioP2;P2;SDS_P1;SDS_P2;PMS_P1;PMS_P2;Temp;Humidity;BMP_temperature;BMP_pressure;BME280_temperature;BME280_humidity;BME280_pressure;Samples;Min_cycle;Max_cycle;Signal;HPM_P1;HPM_P2
2022/04/03 00:00:38;;;;;;;2.20;2.03;;;0.80;99.90;;;;;;5134429;27;20187;-59
2022/04/03 00:03:23;;;;;;;1.60;1.20;;;0.80;99.90;;;;;;5130075;27;20198;-58
2022/04/03 00:06:07;;;;;;;1.63;1.63;;;0.70;99.90;;;;;;5125388;27;20213;-59
2022/04/03 00:08:51;;;;;;;2.00;1.90;;;0.70;99.90;;;;;;5130631;27;20224;-59
2022/04/03 00:11:36;;;;;;;1.30;1.20;;;0.60;99.90;;;;;;5132285;27;20191;-57
2022/04/03 00:14:20;;;;;;;1.00;1.00;;;0.70;99.90;;;;;;5132496;27;20194;-60
2022/04/03 00:17:05;;;;;;;1.63;1.53;;;0.70;99.90;;;;;;5124746;27;20234;-61
2022/04/03 00:19:50;;;;;;;1.83;1.40;;;0.70;99.90;;;;;;5131876;27;20198;-58
2022/04/03 00:22:34;;;;;;;1.20;1.20;;;0.70;99.90;;;;;;5132881;27;20268;-59
2022/04/03 00:25:19;;;;;;;1.67;1.57;;;0.70;99.90;;;;;;5131901;27;20203;-59
2022/04/03 00:28:04;;;;;;;1.80;1.70;;;0.60;99.90;;;;;;5135740;27;20236;-58
2022/04/03 00:30:49;;;;;;;5.20;2.17;;;0.90;99.90;;;;;;5132736;27;20221;-55
2022/04/03 00:33:33;;;;;;;3.47;1.87;;;1.10;99.90;;;;;;5134354;27;20191;-60
2022/04/03 00:36:17;;;;;;;1.63;1.60;;;1.20;99.90;;;;;;5137072;27;20222;-58
2022/04/03 00:39:03;;;;;;;5.17;2.07;;;1.20;99.90;;;;;;5136840;27;20261;-57
2022/04/03 00:41:47;;;;;;;5.67;3.63;;;1.10;99.90;;;;;;5134905;27;20234;-58
2022/04/03 00:44:33;;;;;;;1.27;1.27;;;1.00;99.90;;;;;;5135341;27;20183;-58
2022/04/03 00:47:20;;;;;;;1.57;1.47;;;0.90;99.90;;;;;;5135338;27;20195;-58
2022/04/03 00:50:06;;;;;;;2.70;2.50;;;1.10;99.90;;;;;;5133471;27;20254;-57
2022/04/03 00:52:50;;;;;;;1.70;1.60;;;1.20;99.90;;;;;;5134398;27;20187;-58
2022/04/03 00:55:34;;;;;;;0.73;0.70;;;1.10;99.90;;;;;;5133391;27;20264;-56
2022/04/03 00:58:21;;;;;;;1.43;1.40;;;1.10;99.90;;;;;;5137169;27;20199;-59
2022/04/03 01:01:06;;;;;;;1.53;1.47;;;1.20;99.90;;;;;;5132672;27;20213;-59
2022/04/03 01:03:50;;;;;;;1.17;1.13;;;1.10;99.90;;;;;;5130615;27;20224;-51
2022/04/03 01:06:35;;;;;;;1.77;1.67;;;1.20;99.90;;;;;;5135889;27;20245;-59
2022/04/03 01:09:19;;;;;;;2.33;2.13;;;1.00;99.90;;;;;;5135951;27;20199;-59
2022/04/03 01:12:05;;;;;;;1.80;1.70;;;0.80;99.90;;;;;;5133783;27;20196;-59
2022/04/03 01:14:49;;;;;;;1.83;1.77;;;0.80;99.90;;;;;;5129820;27;20199;-58
2022/04/03 01:17:33;;;;;;;1.23;1.23;;;0.90;99.90;;;;;;5136759;27;20263;-56
2022/04/03 01:20:18;;;;;;;0.97;0.97;;;0.70;99.90;;;;;;5130104;27;20187;-59
2022/04/03 01:23:03;;;;;;;1.80;1.00;;;0.90;99.90;;;;;;5136486;27;20183;-59
2022/04/03 01:25:47;;;;;;;1.57;1.47;;;1.10;99.90;;;;;;5129972;27;20195;-54
2022/04/03 01:28:32;;;;;;;1.27;1.27;;;1.10;99.90;;;;;;5134082;27;20187;-56
2022/04/03 01:31:16;;;;;;;0.90;0.83;;;1.30;99.90;;;;;;5134558;27;20223;-57
2022/04/03 01:34:01;;;;;;;2.00;1.90;;;1.20;99.90;;;;;;5131761;27;20228;-55
2022/04/03 01:36:46;;;;;;;1.13;1.13;;;0.80;99.90;;;;;;5134094;27;20222;-55
2022/04/03 01:39:31;;;;;;;0.90;0.87;;;0.80;99.90;;;;;;5129993;27;20253;-59
2022/04/03 01:42:16;;;;;;;8.37;7.17;;;1.10;99.90;;;;;;5134335;27;20219;-59
2022/04/03 01:45:01;;;;;;;4.27;2.57;;;1.20;99.90;;;;;;5133726;27;20240;-59
2022/04/03 01:47:45;;;;;;;1.63;1.53;;;1.20;99.90;;;;;;5130548;27;20272;-58
2022/04/03 01:50:29;;;;;;;1.73;1.27;;;1.10;99.90;;;;;;5131574;27;20191;-60
2022/04/03 01:53:14;;;;;;;20.73;2.70;;;1.00;99.90;;;;;;5135690;27;20191;-59
2022/04/03 01:56:00;;;;;;;1.40;1.33;;;1.10;99.90;;;;;;5133334;27;20218;-59
2022/04/03 01:58:44;;;;;;;1.70;1.60;;;1.30;99.90;;;;;;5128971;27;20288;-58
2022/04/03 02:01:33;;;;;;;1.53;1.00;;;1.20;99.90;;;;;;5127677;27;20255;-60
2022/04/03 02:04:17;;;;;;;0.67;0.67;;;1.10;99.90;;;;;;5132937;27;20272;-58
2022/04/03 02:07:03;;;;;;;1.53;1.47;;;1.00;99.90;;;;;;5135930;27;20252;-58
2022/04/03 02:09:47;;;;;;;1.83;1.53;;;1.20;99.90;;;;;;5130036;27;20195;-59
2022/04/03 02:12:31;;;;;;;1.73;1.63;;;1.00;99.90;;;;;;5130454;27;20182;-59
2022/04/03 02:15:17;;;;;;;1.40;1.10;;;1.10;99.90;;;;;;5131921;27;20207;-59
2022/04/03 02:18:01;;;;;;;1.70;1.60;;;1.10;99.90;;;;;;5133927;27;20260;-60
2022/04/03 02:20:45;;;;;;;1.63;1.37;;;0.90;99.90;;;;;;5139877;27;20191;-56
2022/04/03 02:23:30;;;;;;;0.63;0.63;;;0.90;99.90;;;;;;5133580;27;20223;-58
2022/04/03 02:26:15;;;;;;;2.37;1.30;;;0.90;99.90;;;;;;5129536;27;20248;-58
2022/04/03 02:28:59;;;;;;;1.10;1.10;;;1.00;99.90;;;;;;5135113;27;20192;-59
2022/04/03 02:31:43;;;;;;;1.17;1.17;;;0.90;99.90;;;;;;5128977;27;20231;-56
2022/04/03 02:34:29;;;;;;;0.93;0.93;;;1.10;99.90;;;;;;5134238;27;20184;-59
2022/04/03 02:37:14;;;;;;;1.33;1.23;;;1.00;99.90;;;;;;5133038;27;20199;-59
2022/04/03 02:39:59;;;;;;;1.33;1.23;;;1.10;99.90;;;;;;5133833;27;20251;-59
2022/04/03 02:42:44;;;;;;;0.90;0.90;;;1.00;99.90;;;;;;5132460;27;20199;-59
2022/04/03 02:45:28;;;;;;;2.00;0.70;;;1.00;99.90;;;;;;5128387;27;20187;-59
2022/04/03 02:48:13;;;;;;;0.77;0.77;;;0.90;99.90;;;;;;5134140;27;20213;-59
2022/04/03 02:50:57;;;;;;;1.43;1.33;;;0.80;99.90;;;;;;5128068;27;20190;-59
2022/04/03 02:53:42;;;;;;;0.43;0.43;;;0.90;99.90;;;;;;5134763;27;20245;-59
2022/04/03 02:56:26;;;;;;;5.07;1.00;;;0.80;99.90;;;;;;5133996;27;20218;-57
2022/04/03 02:59:12;;;;;;;0.83;0.83;;;0.80;99.90;;;;;;5132354;27;20190;-57
2022/04/03 03:01:56;;;;;;;2.67;1.47;;;0.90;99.90;;;;;;5136259;27;20199;-58
2022/04/03 03:04:41;;;;;;;1.00;1.00;;;1.00;99.90;;;;;;5132605;27;20184;-53
2022/04/03 03:07:36;;;;;;;1.87;1.70;;;1.10;99.90;;;;;;5134551;27;20187;-54
2022/04/03 03:10:22;;;;;;;1.23;1.13;;;0.90;99.90;;;;;;5130664;27;20234;-53
2022/04/03 03:13:06;;;;;;;1.93;1.83;;;0.90;99.90;;;;;;5133584;27;20190;-56
2022/04/03 03:15:51;;;;;;;0.80;0.80;;;0.80;99.90;;;;;;5131177;27;20251;-57
2022/04/03 03:18:35;;;;;;;1.47;1.30;;;0.90;99.90;;;;;;5131307;27;20195;-56
2022/04/03 03:21:21;;;;;;;0.93;0.93;;;0.90;99.90;;;;;;5133398;27;20199;-58
2022/04/03 03:24:06;;;;;;;0.67;0.67;;;0.90;99.90;;;;;;5135520;27;20267;-58
2022/04/03 03:26:50;;;;;;;1.10;1.00;;;0.80;99.90;;;;;;5128949;27;20251;-57
2022/04/03 03:29:34;;;;;;;1.00;1.00;;;0.90;99.90;;;;;;5132810;27;20237;-60
2022/04/03 03:32:18;;;;;;;0.90;0.90;;;0.80;99.90;;;;;;5127796;27;20211;-59
2022/04/03 03:35:04;;;;;;;1.23;1.23;;;0.80;99.90;;;;;;5121913;28;20214;-58
2022/04/03 03:37:48;;;;;;;1.97;0.90;;;1.00;99.90;;;;;;5123890;28;20207;-55
2022/04/03 03:40:34;;;;;;;1.10;0.90;;;0.80;99.90;;;;;;5122512;28;20195;-58
2022/04/03 03:43:19;;;;;;;0.93;0.93;;;0.90;99.90;;;;;;5122587;28;20217;-57
2022/04/03 03:46:03;;;;;;;1.67;1.00;;;0.80;99.90;;;;;;5123906;28;20207;-57
2022/04/03 03:48:48;;;;;;;0.83;0.83;;;0.80;99.90;;;;;;5124387;27;20186;-59
2022/04/03 03:51:36;;;;;;;0.67;0.63;;;0.90;99.90;;;;;;5129492;27;20236;-58
2022/04/03 03:54:20;;;;;;;0.70;0.70;;;0.90;99.90;;;;;;5137286;27;20195;-58
2022/04/03 03:57:05;;;;;;;0.60;0.53;;;0.60;99.90;;;;;;5136038;27;20576;-59
2022/04/03 03:59:49;;;;;;;0.90;0.90;;;0.60;99.90;;;;;;5132609;27;20215;-54
2022/04/03 04:02:33;;;;;;;0.93;0.93;;;0.50;99.90;;;;;;5132136;27;20195;-58
2022/04/03 04:05:18;;;;;;;1.00;0.87;;;0.90;99.90;;;;;;5131600;27;20276;-49
2022/04/03 04:08:03;;;;;;;1.57;1.57;;;0.90;99.90;;;;;;5136660;27;20192;-59
2022/04/03 04:10:47;;;;;;;0.40;0.40;;;0.70;99.90;;;;;;5136357;27;20265;-57
2022/04/03 04:13:32;;;;;;;1.07;0.93;;;0.60;99.90;;;;;;5137414;27;20187;-52
2022/04/03 04:16:17;;;;;;;1.30;0.97;;;0.70;99.90;;;;;;5136383;27;20239;-54
2022/04/03 04:19:02;;;;;;;1.50;1.30;;;0.90;99.90;;;;;;5134648;27;20291;-52
2022/04/03 04:21:46;;;;;;;1.30;1.30;;;1.20;99.90;;;;;;5136903;27;20199;-54
2022/04/03 04:24:31;;;;;;;2.37;0.90;;;0.90;99.90;;;;;;5124852;27;20237;-53
2022/04/03 04:27:15;;;;;;;0.90;0.90;;;0.80;99.90;;;;;;5123360;27;20183;-56
2022/04/03 04:29:59;;;;;;;0.73;0.73;;;0.80;99.90;;;;;;5107216;28;20326;-59
2022/04/03 04:32:45;;;;;;;1.40;1.30;;;0.90;99.90;;;;;;5106072;28;20192;-56
2022/04/03 04:35:29;;;;;;;1.33;1.23;;;0.80;99.90;;;;;;5103245;28;20282;-54
2022/04/03 04:38:13;;;;;;;0.67;0.63;;;1.10;99.90;;;;;;5107257;28;20576;-58
2022/04/03 04:40:57;;;;;;;0.70;0.70;;;0.90;99.90;;;;;;5105977;28;20228;-55
2022/04/03 04:43:42;;;;;;;0.50;0.50;;;0.50;99.90;;;;;;5106214;28;20196;-60
2022/04/03 04:46:26;;;;;;;0.80;0.80;;;0.40;99.90;;;;;;5107436;28;20251;-51
2022/04/03 04:49:11;;;;;;;0.83;0.83;;;0.50;99.90;;;;;;5106405;28;20296;-56
2022/04/03 04:51:55;;;;;;;1.23;1.13;;;0.80;99.90;;;;;;5107304;28;20214;-56
2022/04/03 04:54:39;;;;;;;0.40;0.40;;;0.70;99.90;;;;;;5106895;28;20241;-52
2022/04/03 04:57:23;;;;;;;1.70;1.50;;;0.60;99.90;;;;;;5104595;28;20196;-50
2022/04/03 05:00:09;;;;;;;0.63;0.63;;;0.60;99.90;;;;;;5107480;28;20185;-51
2022/04/03 05:02:53;;;;;;;1.30;1.30;;;0.30;99.90;;;;;;5105767;28;20192;-58
2022/04/03 05:05:39;;;;;;;0.97;0.97;;;0.40;99.90;;;;;;5105096;28;20200;-57
2022/04/03 05:08:23;;;;;;;1.10;1.10;;;0.40;99.90;;;;;;5106756;28;20238;-51
2022/04/03 05:11:08;;;;;;;1.03;0.97;;;0.40;99.90;;;;;;5105030;28;20219;-60
2022/04/03 05:13:53;;;;;;;0.90;0.77;;;0.40;99.90;;;;;;5106161;28;20184;-56
2022/04/03 05:16:37;;;;;;;1.33;1.27;;;0.40;99.90;;;;;;5106754;28;20591;-56
2022/04/03 05:19:26;;;;;;;1.13;1.13;;;0.50;99.90;;;;;;5104701;28;20219;-50
2022/04/03 05:22:11;;;;;;;1.60;1.03;;;0.60;99.90;;;;;;5106361;28;20250;-53
2022/04/03 05:24:56;;;;;;;2.37;0.83;;;0.60;99.90;;;;;;5106388;28;20192;-55
2022/04/03 05:27:41;;;;;;;0.90;0.90;;;0.70;99.90;;;;;;5104576;28;20285;-58
2022/04/03 05:30:26;;;;;;;1.03;0.97;;;0.80;99.90;;;;;;5106675;28;20188;-53
2022/04/03 05:33:11;;;;;;;1.87;1.47;;;0.50;99.90;;;;;;5105986;28;20238;-52
2022/04/03 05:35:55;;;;;;;2.33;1.33;;;0.60;99.90;;;;;;5104243;28;20317;-57
2022/04/03 05:38:40;;;;;;;1.03;0.90;;;0.60;99.90;;;;;;5105705;28;20207;-52
2022/04/03 05:41:24;;;;;;;0.50;0.50;;;0.40;99.90;;;;;;5104995;28;20261;-59
2022/04/03 05:44:09;;;;;;;1.07;0.97;;;0.50;99.90;;;;;;5105322;28;20199;-57
2022/04/03 05:46:53;;;;;;;3.47;1.80;;;0.40;99.90;;;;;;5105991;28;20232;-58
2022/04/03 05:49:37;;;;;;;0.73;0.70;;;0.30;99.90;;;;;;5104390;28;20219;-55
2022/04/03 05:52:21;;;;;;;1.53;1.50;;;0.50;99.90;;;;;;5105386;28;20260;-48
2022/04/03 05:55:08;;;;;;;2.23;0.80;;;0.40;99.90;;;;;;5105534;28;20196;-57
2022/04/03 05:57:53;;;;;;;1.23;0.87;;;0.40;99.90;;;;;;5103546;28;20200;-53
2022/04/03 06:00:38;;;;;;;1.13;0.40;;;0.70;99.90;;;;;;5105730;28;20239;-56
2022/04/03 06:03:22;;;;;;;1.30;1.30;;;0.70;99.90;;;;;;5104987;28;20232;-54
2022/04/03 06:06:06;;;;;;;0.60;0.60;;;0.60;99.90;;;;;;5103505;28;20290;-50
2022/04/03 06:08:50;;;;;;;0.97;0.97;;;0.70;99.90;;;;;;5105618;28;20208;-51
2022/04/03 06:11:35;;;;;;;1.03;0.73;;;0.60;99.90;;;;;;5103608;28;20191;-52
2022/04/03 06:14:19;;;;;;;0.80;0.80;;;0.80;99.90;;;;;;5104409;28;20268;-54
2022/04/03 06:17:03;;;;;;;0.50;0.50;;;1.00;99.90;;;;;;5104972;28;20228;-52
2022/04/03 06:19:49;;;;;;;1.10;1.10;;;1.20;99.90;;;;;;5103794;28;20195;-55
2022/04/03 06:22:33;;;;;;;1.37;1.27;;;1.10;99.90;;;;;;5104987;28;20277;-58
2022/04/03 06:25:18;;;;;;;1.33;0.73;;;1.00;99.90;;;;;;5104466;28;20254;-52
2022/04/03 06:28:02;;;;;;;1.37;1.27;;;1.10;99.90;;;;;;5103643;28;20204;-56
2022/04/03 06:30:47;;;;;;;3.73;1.00;;;1.00;99.90;;;;;;5105509;28;20229;-57
2022/04/03 06:33:32;;;;;;;2.37;1.03;;;0.90;99.90;;;;;;5103639;28;20242;-57
2022/04/03 06:36:16;;;;;;;1.60;1.43;;;1.00;99.90;;;;;;5102932;28;20231;-54
2022/04/03 06:39:00;;;;;;;1.13;1.13;;;1.30;99.90;;;;;;5104805;28;20204;-53
2022/04/03 06:41:45;;;;;;;1.00;0.70;;;1.50;99.90;;;;;;5103069;28;20244;-53
2022/04/03 06:44:30;;;;;;;0.83;0.83;;;1.60;99.90;;;;;;5104088;28;20296;-52
2022/04/03 06:47:14;;;;;;;3.90;1.23;;;1.40;99.90;;;;;;5119300;27;20310;-57
2022/04/03 06:49:59;;;;;;;1.00;1.00;;;1.30;99.90;;;;;;5103787;28;20229;-51
2022/04/03 06:52:44;;;;;;;0.90;0.87;;;1.60;99.90;;;;;;5104234;28;20774;-55
2022/04/03 06:55:28;;;;;;;2.63;1.13;;;1.80;99.90;;;;;;5104349;28;20254;-56
2022/04/03 06:58:13;;;;;;;1.83;1.50;;;1.80;99.90;;;;;;5102549;28;20272;-53
2022/04/03 07:00:57;;;;;;;0.80;0.80;;;1.70;99.90;;;;;;5104743;28;20219;-52
2022/04/03 07:03:42;;;;;;;1.00;1.00;;;1.60;99.90;;;;;;5103666;28;20280;-52
2022/04/03 07:06:26;;;;;;;0.73;0.70;;;1.70;99.90;;;;;;5102631;28;20315;-51
2022/04/03 07:09:11;;;;;;;0.30;0.30;;;1.40;99.90;;;;;;5104539;28;20238;-51
2022/04/03 07:11:55;;;;;;;0.70;0.70;;;1.60;99.90;;;;;;5102922;28;20292;-51
2022/04/03 07:14:40;;;;;;;0.77;0.77;;;1.60;99.90;;;;;;5104040;28;20218;-50
2022/04/03 07:17:25;;;;;;;0.87;0.87;;;1.20;99.90;;;;;;5104369;28;20208;-52
2022/04/03 07:20:14;;;;;;;0.57;0.57;;;1.00;99.90;;;;;;5102252;28;20188;-47
2022/04/03 07:22:59;;;;;;;0.83;0.83;;;1.20;99.90;;;;;;5103893;28;20196;-52
2022/04/03 07:25:43;;;;;;;1.23;1.13;;;1.10;99.90;;;;;;5103904;28;20317;-54
2022/04/03 07:28:28;;;;;;;1.60;1.10;;;1.30;99.90;;;;;;5101612;28;20207;-46
2022/04/03 07:31:12;;;;;;;1.30;1.27;;;1.10;99.90;;;;;;5104961;28;20272;-52
2022/04/03 07:33:56;;;;;;;1.60;1.13;;;1.20;99.90;;;;;;5103199;28;20203;-49
2022/04/03 07:36:41;;;;;;;0.97;0.97;;;1.20;99.90;;;;;;5102078;28;20277;-48
2022/04/03 07:39:28;;;;;;;1.20;0.97;;;1.00;99.90;;;;;;5107935;28;20195;-54
2022/04/03 07:42:12;;;;;;;0.70;0.70;;;1.10;99.90;;;;;;5106476;28;20231;-54
2022/04/03 07:44:57;;;;;;;1.10;1.10;;;1.40;99.90;;;;;;5107837;28;20646;-50
2022/04/03 07:47:51;;;;;;;0.90;0.87;;;1.70;99.90;;;;;;5108041;28;20257;-49
2022/04/03 07:50:36;;;;;;;0.40;0.40;;;1.80;99.90;;;;;;5119410;27;20237;-52
2022/04/03 07:53:20;;;;;;;1.27;0.90;;;2.10;99.90;;;;;;5127032;27;20195;-45
2022/04/03 07:56:05;;;;;;;0.67;0.63;;;2.30;99.90;;;;;;5127091;27;20223;-54
2022/04/03 07:58:50;;;;;;;1.53;1.40;;;2.40;99.90;;;;;;5123601;27;20199;-58
2022/04/03 08:01:34;;;;;;;2.17;2.07;;;2.10;99.90;;;;;;5127444;27;20241;-54
2022/04/03 08:04:18;;;;;;;4.13;1.17;;;2.40;99.90;;;;;;5126368;27;20210;-52
2022/04/03 08:07:02;;;;;;;1.87;1.40;;;3.00;99.90;;;;;;5122672;27;20192;-45
2022/04/03 08:09:47;;;;;;;0.83;0.83;;;3.30;99.90;;;;;;5125452;27;20316;-54
2022/04/03 08:12:32;;;;;;;1.27;1.17;;;2.90;99.90;;;;;;5125289;27;20196;-61
2022/04/03 08:15:20;;;;;;;0.80;0.80;;;2.70;99.90;;;;;;5125165;27;20303;-53
2022/04/03 08:18:05;;;;;;;1.07;1.00;;;2.40;99.90;;;;;;5124810;27;20234;-59
2022/04/03 08:20:51;;;;;;;1.23;0.80;;;2.50;99.90;;;;;;5125629;27;20199;-47
2022/04/03 08:23:37;;;;;;;0.80;0.80;;;2.70;99.90;;;;;;5126090;27;20272;-49
2022/04/03 08:26:26;;;;;;;1.30;0.83;;;3.00;99.90;;;;;;5124979;27;20187;-55
2022/04/03 08:29:11;;;;;;;0.60;0.60;;;2.90;99.90;;;;;;5121208;27;20192;-53
2022/04/03 08:31:56;;;;;;;1.50;0.93;;;3.00;99.90;;;;;;5124591;27;20252;-53
2022/04/03 08:34:41;;;;;;;1.03;1.03;;;2.60;99.90;;;;;;5123564;27;20195;-48
2022/04/03 08:37:28;;;;;;;0.70;0.70;;;2.70;99.90;;;;;;5120122;27;20607;-47
2022/04/03 08:40:13;;;;;;;1.80;1.57;;;3.00;99.90;;;;;;5123350;27;20184;-51
2022/04/03 08:42:58;;;;;;;1.00;0.97;;;2.70;99.90;;;;;;5119849;27;20195;-51
2022/04/03 08:45:44;;;;;;;0.83;0.83;;;3.00;99.90;;;;;;5122785;27;20272;-55
2022/04/03 08:48:31;;;;;;;1.13;1.13;;;3.30;99.90;;;;;;5124810;27;20281;-59
2022/04/03 08:51:17;;;;;;;1.67;1.17;;;3.30;99.90;;;;;;5124770;27;20233;-57
2022/04/03 08:54:02;;;;;;;1.23;0.77;;;4.00;99.90;;;;;;5122773;27;20190;-47
2022/04/03 08:56:46;;;;;;;0.87;0.87;;;3.60;99.90;;;;;;5124911;27;20219;-52
2022/04/03 08:59:31;;;;;;;1.10;0.60;;;3.90;99.90;;;;;;5121859;27;20195;-53
2022/04/03 09:02:15;;;;;;;5.53;2.90;;;3.90;99.90;;;;;;5126284;27;20195;-55
2022/04/03 09:04:59;;;;;;;2.30;1.00;;;4.20;99.90;;;;;;5123164;27;20232;-54
2022/04/03 09:07:57;;;;;;;1.00;1.00;;;3.50;99.90;;;;;;5124365;27;20227;-50
2022/04/03 09:10:42;;;;;;;0.70;0.70;;;4.00;99.90;;;;;;5123390;27;20195;-55
2022/04/03 09:13:26;;;;;;;2.20;0.90;;;4.80;99.90;;;;;;5122866;27;20195;-47
2022/04/03 09:16:11;;;;;;;0.70;0.70;;;5.00;99.90;;;;;;5121886;27;20211;-51
2022/04/03 09:18:58;;;;;;;1.37;1.10;;;4.20;99.90;;;;;;5124974;27;20195;-46
2022/04/03 09:21:44;;;;;;;1.17;1.10;;;3.60;99.90;;;;;;5122138;27;20183;-54
2022/04/03 09:24:29;;;;;;;0.77;0.67;;;3.80;99.90;;;;;;5122634;27;20260;-49
2022/04/03 09:27:15;;;;;;;1.03;1.03;;;3.70;99.90;;;;;;5124297;27;20240;-53
2022/04/03 09:30:07;;;;;;;0.90;0.90;;;3.10;99.90;;;;;;5123232;27;20236;-48
2022/04/03 09:32:56;;;;;;;0.97;0.97;;;3.60;99.90;;;;;;5123306;27;20195;-52
2022/04/03 09:36:02;;;;;;;1.97;1.70;;;4.20;99.90;;;;;;5124713;27;20239;-51
2022/04/03 09:38:47;;;;;;;1.70;1.03;;;4.00;99.90;;;;;;5121461;27;20190;-51
2022/04/03 09:41:52;;;;;;;1.73;1.63;;;3.40;99.90;;;;;;5122814;27;20224;-51
2022/04/03 09:44:43;;;;;;;1.90;1.50;;;3.30;99.90;;;;;;5123979;27;20378;-50
2022/04/03 09:47:33;;;;;;;1.33;0.97;;;3.80;99.90;;;;;;5134583;27;20244;-54
2022/04/03 09:50:17;;;;;;;1.20;1.10;;;4.10;99.90;;;;;;5124325;27;20214;-50
2022/04/03 09:53:02;;;;;;;1.23;1.17;;;4.90;99.90;;;;;;5125928;27;20329;-55
2022/04/03 09:55:46;;;;;;;3.30;0.90;;;4.90;99.90;;;;;;5130748;27;20280;-52
2022/04/03 09:58:30;;;;;;;0.80;0.80;;;4.50;99.90;;;;;;5134482;27;20244;-61
2022/04/03 10:01:34;;;;;;;2.53;1.20;;;4.50;99.90;;;;;;5128638;27;20204;-52
2022/04/03 10:04:19;;;;;;;23.23;8.20;;;5.30;99.90;;;;;;5105619;27;20280;-55
2022/04/03 10:07:05;;;;;;;0.97;0.97;;;7.00;99.90;;;;;;5123513;27;20750;-58
2022/04/03 10:09:53;;;;;;;1.73;1.07;;;6.30;99.90;;;;;;5132806;27;20319;-58
2022/04/03 10:12:39;;;;;;;1.33;1.20;;;5.60;99.90;;;;;;5130825;27;20255;-48
2022/04/03 10:15:24;;;;;;;1.00;1.00;;;5.10;99.90;;;;;;5134434;27;20237;-49
2022/04/03 10:18:09;;;;;;;2.10;1.03;;;4.60;99.90;;;;;;5135168;27;20276;-55
2022/04/03 10:20:53;;;;;;;2.97;0.60;;;5.60;99.90;;;;;;5127374;27;20190;-54
2022/04/03 10:23:40;;;;;;;2.17;1.77;;;6.40;99.90;;;;;;5133360;27;20274;-48
2022/04/03 10:26:26;;;;;;;0.90;0.67;;;6.20;99.90;;;;;;5130671;27;20184;-54
2022/04/03 10:29:11;;;;;;;0.60;0.60;;;5.70;99.90;;;;;;5129488;27;20325;-52
2022/04/03 10:32:03;;;;;;;0.93;0.93;;;5.20;99.90;;;;;;5128129;27;20195;-47
2022/04/03 10:34:50;;;;;;;0.83;0.83;;;4.20;99.90;;;;;;5134025;27;20186;-51
2022/04/03 10:37:37;;;;;;;3.20;1.20;;;4.10;99.90;;;;;;5134097;27;20249;-48
2022/04/03 10:40:21;;;;;;;0.70;0.70;;;3.80;99.90;;;;;;5131911;27;20180;-55
2022/04/03 10:43:06;;;;;;;1.20;0.70;;;3.70;99.90;;;;;;5132730;27;20194;-59
2022/04/03 10:45:52;;;;;;;1.03;0.97;;;3.90;99.90;;;;;;5129196;27;20187;-49
2022/04/03 10:48:38;;;;;;;1.03;0.83;;;3.80;99.90;;;;;;5128847;27;20287;-52
2022/04/03 10:51:24;;;;;;;2.17;0.83;;;3.70;99.90;;;;;;5130300;27;20206;-50
2022/04/03 10:54:09;;;;;;;0.80;0.80;;;3.80;99.90;;;;;;5135246;27;20237;-56
2022/04/03 10:56:54;;;;;;;1.10;1.10;;;3.80;99.90;;;;;;5128016;27;20223;-57
2022/04/03 10:59:38;;;;;;;0.90;0.90;;;3.90;99.90;;;;;;5143280;27;20203;-58
2022/04/03 11:02:24;;;;;;;0.87;0.87;;;4.10;99.90;;;;;;5135019;27;20229;-51
2022/04/03 11:05:24;;;;;;;1.73;1.20;;;4.30;99.90;;;;;;5132213;27;20244;-58
2022/04/03 11:08:09;;;;;;;1.13;1.00;;;4.10;99.90;;;;;;5130874;27;20190;-59
2022/04/03 11:10:58;;;;;;;0.70;0.57;;;4.10;99.90;;;;;;5108286;27;20253;-52
2022/04/03 11:13:43;;;;;;;1.13;1.13;;;4.20;99.90;;;;;;5123024;27;20218;-56
2022/04/03 11:16:28;;;;;;;0.80;0.80;;;4.20;99.90;;;;;;5153049;27;20338;-50
2022/04/03 11:19:36;;;;;;;0.90;0.90;;;4.40;99.90;;;;;;5154051;27;20218;-52
2022/04/03 11:22:21;;;;;;;0.60;0.60;;;4.30;99.90;;;;;;5123118;27;20249;-59
2022/04/03 11:25:06;;;;;;;1.10;1.00;;;4.50;99.90;;;;;;5153171;27;20245;-56
2022/04/03 11:27:50;;;;;;;0.83;0.83;;;4.50;99.90;;;;;;5155423;27;20195;-49
2022/04/03 11:30:35;;;;;;;2.97;2.40;;;4.70;99.90;;;;;;5126886;27;20206;-51
2022/04/03 11:33:21;;;;;;;0.93;0.93;;;4.70;99.90;;;;;;5140879;27;20206;-55
2022/04/03 11:36:10;;;;;;;0.87;0.87;;;4.40;99.90;;;;;;5145001;27;20222;-59
2022/04/03 11:38:55;;;;;;;0.70;0.70;;;4.40;99.90;;;;;;5143888;27;20202;-52
2022/04/03 11:41:40;;;;;;;0.67;0.67;;;4.90;99.90;;;;;;5121590;27;20232;-57
2022/04/03 11:44:26;;;;;;;0.60;0.60;;;4.90;99.90;;;;;;5104017;28;20215;-58
2022/04/03 11:47:20;;;;;;;1.53;0.87;;;5.30;99.00;;;;;;5129202;27;20210;-54
2022/04/03 11:50:15;;;;;;;1.80;1.07;;;5.80;99.10;;;;;;5140243;27;20205;-49
2022/04/03 11:53:10;;;;;;;0.77;0.77;;;5.60;98.60;;;;;;5118643;28;20322;-57
2022/04/03 11:55:55;;;;;;;2.20;1.83;;;6.80;99.20;;;;;;5117232;28;20231;-53
2022/04/03 11:58:44;;;;;;;2.53;2.33;;;6.30;97.30;;;;;;5106744;27;20237;-52
2022/04/03 12:01:34;;;;;;;1.20;1.10;;;5.80;98.90;;;;;;5114129;28;20231;-58
2022/04/03 12:04:19;;;;;;;0.87;0.87;;;6.30;97.50;;;;;;5102723;28;20250;-50
2022/04/03 12:07:03;;;;;;;0.73;0.73;;;5.90;98.00;;;;;;5104180;28;20245;-55
2022/04/03 12:09:47;;;;;;;0.80;0.80;;;6.00;97.80;;;;;;5102768;28;20335;-58
2022/04/03 12:12:31;;;;;;;0.37;0.37;;;5.60;96.50;;;;;;5104699;27;20580;-55
2022/04/03 12:15:24;;;;;;;4.23;2.83;;;5.80;96.40;;;;;;5144313;27;20191;-49
2022/04/03 12:18:08;;;;;;;0.70;0.70;;;6.00;96.90;;;;;;5139847;27;20244;-52
2022/04/03 12:20:53;;;;;;;0.80;0.80;;;6.30;95.80;;;;;;5134972;27;20416;-51
2022/04/03 12:23:37;;;;;;;0.60;0.60;;;7.50;94.90;;;;;;5104049;28;20956;-53
2022/04/03 12:26:21;;;;;;;0.50;0.50;;;7.80;93.80;;;;;;5106285;28;20200;-50
2022/04/03 12:29:07;;;;;;;0.60;0.60;;;8.50;94.30;;;;;;5107812;28;20187;-50
2022/04/03 12:32:02;;;;;;;0.70;0.70;;;9.40;91.80;;;;;;5107449;28;20235;-48
2022/04/03 12:34:50;;;;;;;0.67;0.57;;;9.60;89.70;;;;;;5106401;28;20250;-52
2022/04/03 12:37:36;;;;;;;0.50;0.50;;;11.10;83.60;;;;;;5107830;28;20202;-55
2022/04/03 12:40:22;;;;;;;0.80;0.80;;;11.90;81.00;;;;;;5126861;27;20189;-49
2022/04/03 12:43:07;;;;;;;0.70;0.70;;;10.00;81.30;;;;;;5125887;27;20210;-49
2022/04/03 12:45:56;;;;;;;0.50;0.50;;;8.80;84.50;;;;;;5127188;27;20229;-48
2022/04/03 12:48:42;;;;;;;1.03;0.57;;;8.00;85.80;;;;;;5125738;27;20287;-47
2022/04/03 12:51:26;;;;;;;0.67;0.67;;;7.90;87.30;;;;;;5116199;27;20228;-59
2022/04/03 12:54:10;;;;;;;0.63;0.63;;;8.20;89.00;;;;;;5109006;27;20195;-52
2022/04/03 12:59:58;;;;;;;0.70;0.70;;;8.40;89.20;;;;;;5147906;27;20206;-48
2022/04/03 13:02:46;;;;;;;0.53;0.53;;;8.80;89.30;;;;;;5148515;27;20263;-51
2022/04/03 13:05:32;;;;;;;0.50;0.50;;;8.40;88.90;;;;;;5146358;27;20268;-51
2022/04/03 13:08:16;;;;;;;2.10;0.60;;;9.30;88.00;;;;;;5146255;27;20194;-53
2022/04/03 13:11:00;;;;;;;0.57;0.57;;;10.40;85.30;;;;;;5147895;27;20216;-52
2022/04/03 13:13:44;;;;;;;19.63;11.13;;;11.50;83.80;;;;;;5145940;27;20201;-52
2022/04/03 13:16:29;;;;;;;1.00;1.00;;;12.90;78.30;;;;;;5147664;27;20256;-54
2022/04/03 13:19:14;;;;;;;0.70;0.70;;;11.50;73.70;;;;;;5146582;27;20195;-58
2022/04/03 13:21:59;;;;;;;0.70;0.70;;;10.40;75.50;;;;;;5146136;27;20274;-49
2022/04/03 13:24:43;;;;;;;0.80;0.80;;;9.80;77.20;;;;;;5147708;27;20465;-53
2022/04/03 13:27:28;;;;;;;0.60;0.60;;;9.80;75.40;;;;;;5146176;27;20191;-53
2022/04/03 13:30:12;;;;;;;0.57;0.57;;;11.60;77.30;;;;;;5146822;27;20246;-55
2022/04/03 13:32:57;;;;;;;0.90;0.90;;;11.00;73.80;;;;;;5148041;27;20183;-49
2022/04/03 13:35:41;;;;;;;0.67;0.67;;;11.10;71.70;;;;;;5145504;27;20272;-51
2022/04/03 13:38:25;;;;;;;0.73;0.73;;;9.60;74.80;;;;;;5147814;27;20190;-54
2022/04/03 13:41:09;;;;;;;0.80;0.80;;;9.20;76.80;;;;;;5146584;27;20235;-56
2022/04/03 13:43:54;;;;;;;0.60;0.60;;;11.80;76.20;;;;;;5145519;27;20220;-55
2022/04/03 13:46:38;;;;;;;0.60;0.60;;;14.30;71.00;;;;;;5147757;27;20199;-58
2022/04/03 13:49:24;;;;;;;0.77;0.77;;;14.40;68.90;;;;;;5146002;27;20186;-55
2022/04/03 13:52:09;;;;;;;1.00;0.90;;;14.20;65.10;;;;;;5147219;27;20300;-48
2022/04/03 13:54:54;;;;;;;0.80;0.80;;;13.10;64.90;;;;;;5148575;27;20196;-49
2022/04/03 13:57:39;;;;;;;0.80;0.80;;;13.50;65.60;;;;;;5146905;27;20250;-53
2022/04/03 14:00:24;;;;;;;2.13;0.68;;;15.00;63.90;;;;;;5148546;27;20190;-47
2022/04/03 14:03:08;;;;;;;0.80;0.80;;;15.50;60.90;;;;;;5149382;27;20247;-60
2022/04/03 14:05:52;;;;;;;1.27;1.23;;;16.60;58.80;;;;;;5144988;27;20183;-57
2022/04/03 14:08:37;;;;;;;1.70;1.08;;;15.50;56.10;;;;;;5146442;27;20207;-54
2022/04/03 14:11:22;;;;;;;1.25;0.82;;;16.20;56.90;;;;;;5145876;27;20215;-52
2022/04/03 14:14:06;;;;;;;1.13;0.90;;;15.20;55.90;;;;;;5145129;27;20271;-55
2022/04/03 14:16:51;;;;;;;0.93;0.90;;;15.40;57.10;;;;;;5146386;27;20222;-50
2022/04/03 14:19:35;;;;;;;0.70;0.70;;;15.00;56.30;;;;;;5145588;27;20280;-59
2022/04/03 14:22:21;;;;;;;0.63;0.63;;;12.60;56.10;;;;;;5145605;27;20194;-57
2022/04/03 14:25:07;;;;;;;0.83;0.70;;;13.20;59.70;;;;;;5146782;27;20202;-56
2022/04/03 14:27:52;;;;;;;0.70;0.70;;;12.50;60.80;;;;;;5144725;27;20196;-54
2022/04/03 14:30:36;;;;;;;0.50;0.50;;;10.60;61.40;;;;;;5145893;27;20296;-60
2022/04/03 14:33:21;;;;;;;1.03;0.70;;;10.20;65.50;;;;;;5146474;27;20244;-48